Time;durP1;ratioP1;P1;durP2;ratioP2;P2;SDS_P1;SDS_P2;PMS_P1;PMS_P2;Temp;Humidity;BMP_temperature;BMP_pressure;BME280_temperature;BME280_humidity;BME280_pressure;Samples;Min_cycle;Max_cycle;Signal;HPM_P1;HPM_P2
2023/02/27 00:00:59;;;;;;;;;16.50;13.00;;;;;0.10;76.02;99523.59;6313589;20;2798312;-56
2023/02/27 00:03:28;;;;;;;;;18.67;15.00;;;;;0.08;76.04;99528.06;6282526;20;3554831;-56
2023/02/27 00:05:56;;;;;;;;;16.50;14.50;;;;;0.07;75.78;99526.28;6316685;20;2810813;-57
2023/02/27 00:08:27;;;;;;;;;13.00;12.17;;;;;-0.02;75.13;99537.94;6325944;20;1812813;-57
2023/02/27 00:10:55;;;;;;;;;19.00;16.00;;;;;0.03;75.65;99548.41;6283254;20;2828601;-55
2023/02/27 00:13:24;;;;;;;;;14.80;14.80;;;;;0.00;75.54;99548.47;6308360;20;2811889;-57
2023/02/27 00:15:55;;;;;;;;;21.60;14.00;;;;;-0.06;75.88;99543.28;6307854;20;2822194;-56
2023/02/27 00:18:23;;;;;;;;;19.00;15.00;;;;;0.02;75.60;99540.50;6281906;20;2797208;-58
2023/02/27 00:20:51;;;;;;;;;20.00;12.50;;;;;-0.10;75.62;99539.00;6282334;20;2798188;-57
2023/02/27 00:23:18;;;;;;;;;16.00;13.00;;;;;-0.05;75.36;99540.63;6284430;20;2800315;-58
2023/02/27 00:25:46;;;;;;;;;21.50;15.00;;;;;-0.24;75.26;99541.91;6283505;20;2798315;-57
2023/02/27 00:28:18;;;;;;;;;15.86;14.14;;;;;-0.23;75.87;99547.16;6325848;20;1814915;-55
2023/02/27 00:30:45;;;;;;;;;16.50;12.50;;;;;-0.12;75.31;99551.34;6311089;20;2798233;-56
2023/02/27 00:33:16;;;;;;;;;11.50;11.33;;;;;-0.17;75.33;99548.78;6326630;20;1814905;-57
2023/02/27 00:35:56;;;;;;;;;14.20;13.20;;;;;-0.15;75.59;99551.41;6308592;20;2795079;-58
2023/02/27 00:38:24;;;;;;;;;8.67;0.67;;;;;-0.13;74.96;99554.88;6288943;20;2746209;-58
2023/02/27 00:40:55;;;;;;;;;17.57;12.86;;;;;-0.15;74.77;99556.69;6352423;20;1817041;-57
2023/02/27 00:43:23;;;;;;;;;15.50;15.50;;;;;-0.09;73.99;99548.63;6315008;20;2798246;-57
2023/02/27 00:45:51;;;;;;;;;12.50;11.50;;;;;-0.17;74.19;99553.22;6281995;20;2779446;-57
2023/02/27 00:48:19;;;;;;;;;11.00;11.00;;;;;-0.33;74.62;99557.91;6283212;20;2770116;-56
2023/02/27 00:50:49;;;;;;;;;15.50;11.50;;;;;-0.32;74.68;99560.50;6283209;20;2796151;-58
2023/02/27 00:53:17;;;;;;;;;18.50;11.00;;;;;-0.35;74.93;99557.06;6285093;20;2800304;-54
2023/02/27 00:55:45;;;;;;;;;16.00;12.00;;;;;-0.36;74.57;99564.13;6285606;20;2796176;-58
2023/02/27 00:58:14;;;;;;;;;18.20;12.40;;;;;-0.29;74.57;99570.13;6305687;20;2802397;-59
2023/02/27 01:00:42;;;;;;;;;18.50;12.00;;;;;-0.43;74.54;99570.41;6281300;20;2797186;-57
2023/02/27 01:03:12;;;;;;;;;14.40;12.00;;;;;-0.42;74.60;99572.16;6308574;20;2814883;-56
2023/02/27 01:05:40;;;;;;;;;15.00;12.00;;;;;-0.45;74.81;99566.91;6284544;20;2791970;-57
2023/02/27 01:08:10;;;;;;;;;17.83;12.33;;;;;-0.41;74.60;99571.25;6319775;20;1828420;-56
2023/02/27 01:10:39;;;;;;;;;6.25;6.25;;;;;-0.42;74.85;99569.53;6302711;20;1823265;-55
2023/02/27 01:13:07;;;;;;;;;15.00;10.00;;;;;-0.31;73.85;99574.59;6309655;20;2779468;-56
2023/02/27 01:15:37;;;;;;;;;5.00;4.00;;;;;-0.37;73.80;99570.31;6281831;20;3449301;-56
2023/02/27 01:18:05;;;;;;;;;8.67;6.33;;;;;-0.47;74.14;99577.50;6314136;20;3468020;-57
2023/02/27 01:20:33;;;;;;;;;15.00;9.00;;;;;-0.43;72.90;99557.22;6281233;20;2771125;-57
2023/02/27 01:23:03;;;;;;;;;11.80;10.60;;;;;-0.27;72.48;99584.16;6322178;20;1799314;-57
2023/02/27 01:25:31;;;;;;;;;19.50;13.00;;;;;-0.22;71.68;99583.16;6312953;20;2805503;-57
2023/02/27 01:28:00;;;;;;;;;13.50;11.00;;;;;-0.16;71.23;99583.94;6300592;20;1831691;-57
2023/02/27 01:30:28;;;;;;;;;12.00;8.00;;;;;-0.05;70.91;99585.50;6313159;20;2760717;-61
2023/02/27 01:32:56;;;;;;;;;13.50;11.00;;;;;-0.06;71.57;99596.06;6315640;20;2782749;-58
2023/02/27 01:35:24;;;;;;;;;10.75;8.75;;;;;-0.01;71.17;99602.13;6333100;20;1818694;-58
2023/02/27 01:37:52;;;;;;;;;20.00;11.50;;;;;-0.13;71.45;99597.97;6310883;20;2802472;-57
2023/02/27 01:40:20;;;;;;;;;9.33;8.67;;;;;-0.03;71.60;99603.91;6282051;20;3464822;-58
2023/02/27 01:42:48;;;;;;;;;11.00;10.00;;;;;0.02;70.56;99599.41;6314671;20;2766958;-58
2023/02/27 01:45:39;;;;;;;;;10.75;9.25;;;;;-0.06;70.36;99609.25;6302082;20;1820750;-57
2023/02/27 01:48:22;;;;;;;;;12.17;10.67;;;;;-0.09;69.70;99610.19;6355602;20;1809772;-58
2023/02/27 01:51:01;;;;;;;;;8.50;8.50;;;;;-0.06;68.90;99610.13;6283737;20;2736871;-58
2023/02/27 01:53:33;;;;;;;;;6.00;6.00;;;;;-0.01;68.83;99602.13;6314415;20;3463988;-58
2023/02/27 01:56:20;;;;;;;;;10.67;8.00;;;;;-0.08;68.71;99598.75;6314103;20;3470114;-57
2023/02/27 01:58:52;;;;;;;;;11.25;8.00;;;;;-0.03;68.07;99591.63;6301772;20;1819043;-57
2023/02/27 02:01:22;;;;;;;;;5.00;5.00;;;;;-0.10;68.41;99597.06;6329185;20;1819125;-58
2023/02/27 02:04:09;;;;;;;;;12.00;8.50;;;;;-0.02;67.35;99592.47;6312048;20;2764868;-58
2023/02/27 02:06:44;;;;;;;;;6.50;5.00;;;;;-0.01;67.18;99596.84;6329808;20;1827430;-58
2023/02/27 02:09:15;;;;;;;;;8.00;8.00;;;;;0.07;67.03;99605.47;6312841;20;2753429;-58
2023/02/27 02:11:44;;;;;;;;;6.00;6.00;;;;;0.16;66.57;99610.59;6311842;20;3447168;-57
2023/02/27 02:14:11;;;;;;;;;12.00;8.00;;;;;0.02;67.38;99617.03;6311307;20;2766013;-57
2023/02/27 02:17:12;;;;;;;;;8.00;8.00;;;;;0.15;67.22;99611.47;6282171;20;3447353;-58
2023/02/27 02:20:41;;;;;;;;;9.33;5.00;;;;;0.09;66.47;99624.81;6308679;20;3477545;-56
2023/02/27 02:23:56;;;;;;;;;8.50;8.00;;;;;-0.01;66.22;99628.53;6308355;20;2738993;-58
2023/02/27 02:26:39;;;;;;;;;4.33;4.33;;;;;0.14;66.01;99633.50;6316005;20;3464897;-57
2023/02/27 02:29:53;;;;;;;;;7.00;7.00;;;;;0.11;66.18;99632.69;6317648;20;3457674;-56
2023/02/27 02:33:22;;;;;;;;;12.00;9.50;;;;;0.02;66.46;99639.00;6318800;20;2773290;-57
2023/02/27 02:36:45;;;;;;;;;8.00;8.00;;;;;0.21;66.09;99645.69;6287119;20;2746203;-57
2023/02/27 02:39:37;;;;;;;;;5.67;5.67;;;;;0.17;65.88;99644.00;6318148;20;3457549;-57
2023/02/27 02:42:17;;;;;;;;;8.00;6.00;;;;;0.13;65.78;99642.34;6317172;20;2752430;-49
2023/02/27 02:45:39;;;;;;;;;10.25;8.00;;;;;0.26;66.08;99658.78;6334325;20;1831840;-54
2023/02/27 02:48:38;;;;;;;;;9.67;6.33;;;;;0.26;65.45;99655.25;6353763;20;1808662;-49
2023/02/27 02:51:50;;;;;;;;;8.00;8.00;;;;;0.24;65.73;99664.97;6286810;20;3442080;-51
2023/02/27 02:55:06;;;;;;;;;8.00;6.00;;;;;0.09;66.06;99671.44;6332560;20;1825342;-52
2023/02/27 02:58:31;;;;;;;;;6.33;5.67;;;;;0.06;65.91;99659.19;6314249;20;3468123;-54
2023/02/27 03:01:17;;;;;;;;;9.33;7.00;;;;;0.05;66.22;99667.13;6280737;20;3463818;-52
2023/02/27 03:04:26;;;;;;;;;6.75;5.00;;;;;-0.02;66.24;99674.28;6338424;20;1820265;-55
2023/02/27 03:07:10;;;;;;;;;7.33;7.00;;;;;0.08;65.74;99673.22;6315911;20;3458840;-52
2023/02/27 03:10:11;;;;;;;;;6.00;5.00;;;;;0.19;65.78;99676.53;6316188;20;3472292;-50
2023/02/27 03:12:50;;;;;;;;;8.00;8.00;;;;;0.12;66.02;99682.81;6308962;20;1819074;-52
2023/02/27 03:15:31;;;;;;;;;10.00;8.75;;;;;0.07;66.25;99684.66;6334656;20;1823075;-51
2023/02/27 03:18:19;;;;;;;;;19.17;17.50;;;;;-0.05;66.17;99684.91;6337579;20;2839966;-52
2023/02/27 03:21:12;;;;;;;;;22.33;19.33;;;;;-0.03;66.16;99677.81;6314829;20;3570039;-51
2023/02/27 03:23:46;;;;;;;;;16.00;15.00;;;;;0.10;66.11;99681.97;6316196;20;2797152;-51
2023/02/27 03:26:23;;;;;;;;;22.33;21.00;;;;;0.17;66.52;99694.16;6281666;20;3564920;-50
2023/02/27 03:29:30;;;;;;;;;17.50;16.75;;;;;0.02;66.44;99691.81;6331147;20;1832629;-53
2023/02/27 03:32:41;;;;;;;;;17.00;12.67;;;;;-0.03;66.37;99698.94;6353006;20;1819076;-51
2023/02/27 03:35:11;;;;;;;;;9.00;8.67;;;;;-0.01;66.37;99697.13;6284616;20;3459645;-50
2023/02/27 03:38:10;;;;;;;;;16.25;11.25;;;;;0.01;66.52;99703.25;6330597;20;1821221;-48
2023/02/27 03:41:23;;;;;;;;;15.00;12.50;;;;;-0.04;67.27;99710.41;6311480;20;2785707;-51
2023/02/27 03:44:11;;;;;;;;;14.00;10.67;;;;;-0.19;66.37;99708.03;6307577;20;1830624;-48
2023/02/27 03:46:40;;;;;;;;;8.00;6.00;;;;;-0.11;66.17;99711.41;6331418;20;1814948;-52
2023/02/27 03:49:09;;;;;;;;;11.25;6.00;;;;;-0.05;66.01;99711.31;6303420;20;1823285;-52
2023/02/27 03:51:37;;;;;;;;;7.67;7.67;;;;;0.00;65.99;99706.81;6314157;20;3462815;-52
2023/02/27 03:54:26;;;;;;;;;8.75;8.00;;;;;-0.03;66.52;99706.84;6334289;20;1819210;-51
2023/02/27 03:57:06;;;;;;;;;11.50;9.00;;;;;0.02;65.82;99718.19;6315595;20;2745043;-52
2023/02/27 03:59:37;;;;;;;;;41.67;33.33;;;;;0.11;66.27;99727.72;6315518;20;3598210;-51
2023/02/27 04:02:07;;;;;;;;;44.50;37.00;;;;;0.10;66.84;99725.97;6282707;20;2861919;-52
2023/02/27 04:04:38;;;;;;;;;56.67;44.33;;;;;0.16;66.18;99733.81;6281806;20;2880625;-49
2023/02/27 04:07:25;;;;;;;;;60.00;44.50;;;;;0.19;66.09;99721.41;6313524;20;2862844;-49
2023/02/27 04:10:31;;;;;;;;;20.00;19.00;;;;;0.03;66.35;99721.69;6283518;20;2840024;-49
2023/02/27 04:13:33;;;;;;;;;12.00;8.00;;;;;0.01;66.22;99719.09;6280468;20;3479400;-52
2023/02/27 04:16:38;;;;;;;;;12.00;8.50;;;;;-0.05;66.33;99728.00;6314420;20;2754553;-51
2023/02/27 04:19:37;;;;;;;;;8.00;7.50;;;;;0.05;65.87;99723.41;6304291;20;1823289;-53
2023/02/27 04:22:52;;;;;;;;;6.33;6.00;;;;;-0.01;65.73;99723.53;6310920;20;3463896;-53
2023/02/27 04:26:07;;;;;;;;;8.00;8.00;;;;;0.03;65.77;99719.94;6312593;20;3463809;-52
2023/02/27 04:29:03;;;;;;;;;9.25;6.00;;;;;0.04;66.05;99716.41;6334948;20;1822240;-50
2023/02/27 04:32:07;;;;;;;;;6.00;5.00;;;;;0.02;66.28;99725.25;6311641;20;2749238;-51
2023/02/27 04:34:47;;;;;;;;;11.17;8.83;;;;;0.02;66.42;99723.47;6357426;20;1816956;-51
2023/02/27 04:38:04;;;;;;;;;8.00;6.00;;;;;-0.01;65.94;99720.88;6283723;20;3458628;-51
2023/02/27 04:40:42;;;;;;;;;9.00;7.67;;;;;0.16;66.19;99732.03;6314714;20;3461836;-52
2023/02/27 04:43:14;;;;;;;;;8.50;6.25;;;;;0.14;66.15;99723.25;6327214;20;1829652;-52
2023/02/27 04:45:46;;;;;;;;;11.50;7.75;;;;;0.23;64.86;99722.19;6330860;20;1821217;-51
2023/02/27 04:48:34;;;;;;;;;9.00;5.00;;;;;0.29;65.06;99737.06;6313202;20;3471115;-51
2023/02/27 04:51:23;;;;;;;;;8.25;5.75;;;;;0.29;64.40;99737.06;6329294;20;1825360;-50
2023/02/27 04:54:21;;;;;;;;;8.00;8.00;;;;;0.33;64.53;99751.94;6313754;20;2742998;-51
2023/02/27 04:57:03;;;;;;;;;5.00;5.00;;;;;0.22;64.36;99758.31;6332133;20;1823267;-50
2023/02/27 04:59:40;;;;;;;;;9.00;6.00;;;;;0.35;64.56;99763.38;6312867;20;2747219;-53
2023/02/27 05:02:24;;;;;;;;;6.00;6.00;;;;;0.33;63.51;99770.44;6327034;20;1823264;-52
2023/02/27 05:04:59;;;;;;;;;13.75;9.00;;;;;0.34;64.66;99769.53;6333400;20;1830608;-51
2023/02/27 05:07:45;;;;;;;;;12.00;9.50;;;;;0.44;63.65;99769.31;6311308;20;2779494;-52
2023/02/27 05:10:32;;;;;;;;;8.25;7.00;;;;;0.44;62.91;99779.88;6299173;20;1805536;-52
2023/02/27 05:13:29;;;;;;;;;8.00;5.33;;;;;0.27;63.42;99775.84;6313333;20;3467977;-52
2023/02/27 05:16:37;;;;;;;;;5.00;5.00;;;;;0.49;62.63;99789.50;6312340;20;3468017;-50
2023/02/27 05:19:06;;;;;;;;;10.00;6.67;;;;;0.34;63.16;99782.72;6311965;20;3457596;-51
2023/02/27 05:22:10;;;;;;;;;8.50;6.00;;;;;0.37;63.43;99790.59;6328761;20;1816955;-53
2023/02/27 05:25:01;;;;;;;;;7.25;7.25;;;;;0.34;63.33;99801.22;6331398;20;1816999;-52
2023/02/27 05:27:48;;;;;;;;;8.00;8.00;;;;;0.39;63.80;99799.38;6312186;20;3447174;-55
2023/02/27 05:30:35;;;;;;;;;9.00;6.75;;;;;0.46;63.13;99801.00;6328139;20;1823259;-52
2023/02/27 05:33:30;;;;;;;;;6.67;5.00;;;;;0.38;62.81;99809.06;6310788;20;3453554;-52
2023/02/27 05:36:32;;;;;;;;;7.50;6.00;;;;;0.36;63.19;99812.63;6332001;20;1819129;-50
2023/02/27 05:39:08;;;;;;;;;14.50;9.50;;;;;0.39;64.13;99807.28;6329582;20;1831794;-52
2023/02/27 05:41:51;;;;;;;;;9.33;8.00;;;;;0.35;64.38;99813.53;6308745;20;3453419;-52
2023/02/27 05:44:33;;;;;;;;;6.00;6.00;;;;;0.52;63.52;99819.38;6330349;20;1815929;-50
2023/02/27 05:47:12;;;;;;;;;8.00;8.00;;;;;0.33;63.86;99813.56;6314326;20;3454439;-54
2023/02/27 05:49:46;;;;;;;;;9.50;6.00;;;;;0.31;63.99;99817.13;6311846;20;2758623;-52
2023/02/27 05:52:20;;;;;;;;;6.50;6.50;;;;;0.42;63.60;99816.03;6328657;20;1818013;-52
2023/02/27 05:54:58;;;;;;;;;6.00;6.00;;;;;0.41;63.65;99816.06;6313701;20;3458672;-49
2023/02/27 05:57:50;;;;;;;;;8.33;8.00;;;;;0.28;63.91;99819.81;6314634;20;3440019;-52
2023/02/27 06:00:50;;;;;;;;;7.25;6.25;;;;;0.41;63.68;99822.22;6331847;20;1815116;-54
2023/02/27 06:03:18;;;;;;;;;2.00;0.67;;;;;0.38;63.61;99832.84;6321323;20;3445136;-50
2023/02/27 06:05:48;;;;;;;;;9.50;8.00;;;;;0.53;63.10;99836.13;6317561;20;2743103;-52
2023/02/27 06:08:16;;;;;;;;;12.00;9.00;;;;;0.55;62.84;99840.44;6334752;20;1819105;-51
2023/02/27 06:10:45;;;;;;;;;9.00;9.00;;;;;0.68;62.91;99849.00;6336023;20;1814971;-52
2023/02/27 06:13:12;;;;;;;;;6.00;6.00;;;;;0.67;61.51;99847.28;6319546;20;3459723;-55
2023/02/27 06:15:42;;;;;;;;;9.50;6.00;;;;;0.82;61.25;99859.34;6336998;20;1825440;-53
2023/02/27 06:18:13;;;;;;;;;9.00;8.00;;;;;0.86;61.59;99868.94;6336973;20;1816032;-53
2023/02/27 06:20:46;;;;;;;;;11.33;9.17;;;;;0.60;62.03;99872.06;6360330;20;1806552;-52
2023/02/27 06:23:16;;;;;;;;;11.75;9.50;;;;;0.80;61.54;99877.00;6302654;20;1827604;-51
2023/02/27 06:25:44;;;;;;;;;12.25;9.25;;;;;0.83;61.90;99884.88;6337750;20;1823292;-54
2023/02/27 06:28:14;;;;;;;;;13.00;13.00;;;;;1.07;61.10;99889.66;6343494;20;2795203;-52
2023/02/27 06:30:44;;;;;;;;;27.67;18.67;;;;;1.15;60.89;99899.22;6311648;20;2839953;-52
2023/02/27 06:33:14;;;;;;;;;25.67;21.00;;;;;1.08;60.75;99899.34;6316282;20;3561714;-53
2023/02/27 06:35:42;;;;;;;;;11.50;11.50;;;;;1.12;60.38;99909.88;6286280;20;2787807;-53
2023/02/27 06:38:10;;;;;;;;;14.00;12.75;;;;;0.97;60.93;99916.31;6306332;20;1836946;-51
2023/02/27 06:40:39;;;;;;;;;10.50;10.50;;;;;0.94;60.71;99917.25;6333585;20;1816958;-53
2023/02/27 06:43:08;;;;;;;;;28.67;22.00;;;;;1.34;60.96;99921.75;6315951;20;3578562;-52
2023/02/27 06:45:37;;;;;;;;;19.67;16.33;;;;;1.51;59.76;99930.22;6288039;20;3554471;-55
2023/02/27 06:48:05;;;;;;;;;17.50;14.50;;;;;1.82;59.32;99939.28;6318228;20;2825287;-53
2023/02/27 06:50:33;;;;;;;;;17.00;13.50;;;;;1.61;58.94;99943.28;6284616;20;2798220;-51
2023/02/27 06:53:02;;;;;;;;;10.50;9.50;;;;;1.65;58.69;99939.66;6304558;20;1819154;-54
2023/02/27 06:55:30;;;;;;;;;10.00;9.00;;;;;1.51;58.67;99946.09;6335790;20;1812845;-53
2023/02/27 06:58:00;;;;;;;;;12.17;7.00;;;;;1.75;58.42;99950.00;6360457;20;1816999;-51
2023/02/27 07:00:28;;;;;;;;;9.33;7.33;;;;;1.72;58.24;99951.84;6285452;20;3461763;-52
2023/02/27 07:02:57;;;;;;;;;7.00;7.00;;;;;1.98;57.86;99951.28;6334674;20;1812831;-50
2023/02/27 07:05:25;;;;;;;;;6.50;6.00;;;;;2.00;57.56;99957.41;6337974;20;1815774;-50
2023/02/27 07:07:54;;;;;;;;;11.00;7.00;;;;;2.34;56.61;99969.88;6316724;20;2765997;-53
2023/02/27 07:10:25;;;;;;;;;7.00;7.00;;;;;2.23;56.57;99962.19;6305810;20;1808997;-50
2023/02/27 07:12:54;;;;;;;;;7.00;7.00;;;;;2.21;56.11;99966.63;6319968;20;2738854;-52
2023/02/27 07:15:22;;;;;;;;;14.50;11.00;;;;;2.75;55.56;99965.38;6318078;20;2799368;-54
2023/02/27 07:17:50;;;;;;;;;11.00;9.00;;;;;2.45;55.08;99966.97;6287342;20;2774238;-52
2023/02/27 07:20:18;;;;;;;;;10.50;9.50;;;;;2.97;54.44;99971.84;6283907;20;2775303;-50
2023/02/27 07:22:45;;;;;;;;;11.00;10.00;;;;;2.52;55.09;99974.75;6284946;20;2777380;-56
2023/02/27 07:25:13;;;;;;;;;16.00;11.00;;;;;2.84;54.11;99976.63;6283440;20;2810679;-55
2023/02/27 07:27:44;;;;;;;;;7.50;7.50;;;;;2.84;53.83;99978.38;6306703;20;1811922;-51
2023/02/27 07:30:17;;;;;;;;;9.57;9.43;;;;;3.02;54.55;99979.69;6357247;20;1819127;-51
2023/02/27 07:32:46;;;;;;;;;6.00;6.00;;;;;2.78;53.62;99981.19;6317809;20;2731550;-53
2023/02/27 07:35:18;;;;;;;;;13.86;13.14;;;;;3.00;53.57;99977.09;6356611;20;1819189;-52
2023/02/27 07:37:47;;;;;;;;;12.60;9.20;;;;;3.12;52.52;99977.69;6339298;20;2774309;-51
2023/02/27 07:40:16;;;;;;;;;8.75;8.75;;;;;3.19;52.43;99988.09;6305599;20;1817065;-51
2023/02/27 07:42:48;;;;;;;;;7.00;5.50;;;;;2.88;53.27;99987.16;6317419;20;2747165;-48
2023/02/27 07:45:17;;;;;;;;;8.00;8.00;;;;;2.90;52.73;99986.19;6336460;20;1815036;-50
2023/02/27 07:47:46;;;;;;;;;7.75;7.75;;;;;2.55;52.96;99990.56;6337122;20;1817046;-53
2023/02/27 07:50:14;;;;;;;;;7.00;7.00;;;;;2.78;53.18;99992.66;6315291;20;3452335;-54
2023/02/27 07:52:44;;;;;;;;;6.75;6.00;;;;;2.95;52.18;99994.91;6335942;20;1819151;-49
2023/02/27 07:55:13;;;;;;;;;6.50;5.00;;;;;3.40;52.59;100002.56;6336389;20;1821170;-50
2023/02/27 07:57:41;;;;;;;;;7.00;7.00;;;;;3.77;52.15;100004.19;6320976;20;2739879;-51
2023/02/27 08:00:10;;;;;;;;;8.50;7.00;;;;;3.79;52.18;100006.78;6315818;20;2737796;-54
2023/02/27 08:02:39;;;;;;;;;9.67;6.00;;;;;3.55;51.39;100006.56;6316974;20;3463865;-52
2023/02/27 08:05:07;;;;;;;;;8.00;8.00;;;;;3.55;51.09;100011.88;6284875;20;2740895;-47
2023/02/27 08:07:36;;;;;;;;;7.00;7.00;;;;;3.85;50.03;100006.63;6333773;20;1819078;-52
2023/02/27 08:10:06;;;;;;;;;11.00;7.25;;;;;3.86;50.88;100003.91;6335220;20;1827573;-52
2023/02/27 08:12:34;;;;;;;;;8.75;7.00;;;;;3.66;50.87;100015.13;6332368;20;1809682;-54
2023/02/27 08:15:04;;;;;;;;;3.75;3.75;;;;;4.26;48.87;100016.00;6336572;20;1816027;-51
2023/02/27 08:17:33;;;;;;;;;6.25;6.25;;;;;4.52;48.75;100011.69;6335971;20;1807681;-52
2023/02/27 08:20:01;;;;;;;;;7.00;7.00;;;;;4.05;48.55;100017.53;6316467;20;2739866;-53
2023/02/27 08:22:28;;;;;;;;;8.50;7.50;;;;;4.18;48.78;100018.88;6313356;20;2743068;-52
2023/02/27 08:24:57;;;;;;;;;7.75;6.25;;;;;4.54;46.47;100020.47;6334967;20;1818546;-48
2023/02/27 08:27:25;;;;;;;;;7.00;6.50;;;;;4.47;45.90;100033.09;6316220;20;2747162;-53
2023/02/27 08:29:52;;;;;;;;;7.50;7.00;;;;;4.57;46.89;100031.03;6312765;20;2746133;-55
2023/02/27 08:32:20;;;;;;;;;4.00;4.00;;;;;4.41;45.99;100035.94;6285885;20;3472296;-54
2023/02/27 08:34:48;;;;;;;;;7.50;6.00;;;;;4.27;45.78;100039.03;6285732;20;2745536;-52
2023/02/27 08:37:16;;;;;;;;;6.50;5.00;;;;;4.26;45.97;100050.56;6311745;20;2745095;-53
2023/02/27 08:39:44;;;;;;;;;3.25;3.25;;;;;4.40;45.93;100058.13;6335891;20;1817017;-51
2023/02/27 08:42:14;;;;;;;;;8.00;4.00;;;;;4.46;46.15;100062.41;6315354;20;2754446;-51
2023/02/27 08:44:42;;;;;;;;;5.00;5.00;;;;;4.04;46.39;100062.75;6336045;20;1818772;-50
2023/02/27 08:47:10;;;;;;;;;6.00;6.00;;;;;3.92;47.27;100071.91;6317215;20;2748300;-52
2023/02/27 08:49:38;;;;;;;;;8.50;5.00;;;;;4.43;46.27;100066.00;6317795;20;2750329;-52
2023/02/27 08:52:08;;;;;;;;;3.25;3.25;;;;;3.97;46.85;100070.00;6334108;20;1810190;-52
2023/02/27 08:54:36;;;;;;;;;21.00;12.00;;;;;4.15;46.90;100071.28;6315336;20;2812809;-49
2023/02/27 08:57:04;;;;;;;;;4.67;3.33;;;;;4.64;46.41;100079.59;6284603;20;3451423;-51
2023/02/27 08:59:33;;;;;;;;;7.00;5.00;;;;;4.45;47.11;100082.81;6332610;20;1819145;-52
2023/02/27 09:02:01;;;;;;;;;6.50;5.00;;;;;4.46;46.89;100091.63;6316008;20;2752350;-50
2023/02/27 09:04:29;;;;;;;;;5.50;4.75;;;;;4.03;45.49;100091.09;6303936;20;1818226;-53
2023/02/27 09:06:58;;;;;;;;;26.67;21.33;;;;;4.22;47.32;100096.75;6314092;20;3572212;-48
2023/02/27 09:09:27;;;;;;;;;10.40;7.40;;;;;4.10;45.95;100094.44;6339850;20;2747291;-53
2023/02/27 09:11:58;;;;;;;;;13.00;10.20;;;;;4.54;45.12;100097.59;6349252;20;2594114;-50
2023/02/27 09:14:27;;;;;;;;;6.00;4.50;;;;;4.61;44.46;100100.03;6334136;20;1820195;-53
2023/02/27 09:16:55;;;;;;;;;14.00;12.50;;;;;4.07;47.35;100095.41;6316463;20;2810756;-51
2023/02/27 09:19:24;;;;;;;;;6.00;6.00;;;;;4.33;46.89;100107.06;6303295;20;1811775;-52
2023/02/27 09:21:52;;;;;;;;;6.50;6.00;;;;;4.49;47.07;100104.84;6329290;20;1819142;-50
2023/02/27 09:24:20;;;;;;;;;8.00;7.50;;;;;4.54;46.73;100111.75;6313152;20;2743190;-49
2023/02/27 09:26:49;;;;;;;;;9.00;7.25;;;;;4.52;46.86;100102.09;6297905;20;1820828;-54
2023/02/27 09:29:18;;;;;;;;;7.00;7.00;;;;;4.67;48.01;100111.41;6310344;20;2745236;-51
2023/02/27 09:31:47;;;;;;;;;7.25;7.25;;;;;4.33;45.86;100109.75;6333283;20;1819199;-52
2023/02/27 09:34:15;;;;;;;;;8.00;7.00;;;;;4.78;45.79;100109.25;6316866;20;2726360;-54
2023/02/27 09:36:43;;;;;;;;;8.25;6.75;;;;;4.53;46.72;100112.69;6333454;20;1813296;-52
2023/02/27 09:39:14;;;;;;;;;8.33;6.33;;;;;4.33;46.75;100102.63;6358164;20;1808704;-52
2023/02/27 09:42:21;;;;;;;;;6.25;6.00;;;;;4.80;46.80;100107.44;6300965;20;1824812;-53
2023/02/27 09:44:58;;;;;;;;;12.00;8.57;;;;;4.32;47.37;100105.34;6354745;20;1814346;-50
2023/02/27 09:47:49;;;;;;;;;25.00;23.33;;;;;4.60;45.01;100116.88;6308609;20;3578476;-54
2023/02/27 09:50:41;;;;;;;;;41.67;30.67;;;;;4.21;46.28;100116.25;6278021;20;2870237;-53
2023/02/27 09:53:25;;;;;;;;;10.25;6.50;;;;;4.46;45.98;100115.56;6329235;20;1816968;-50
2023/02/27 09:56:29;;;;;;;;;8.50;7.00;;;;;4.36;46.04;100128.25;6312128;20;2741967;-50
2023/02/27 09:59:51;;;;;;;;;11.00;7.00;;;;;4.26;46.53;100121.44;6313024;20;2757093;-53
2023/02/27 10:02:37;;;;;;;;;9.00;8.00;;;;;4.25;46.54;100125.03;6280264;20;2729642;-51
2023/02/27 10:05:54;;;;;;;;;7.00;6.00;;;;;5.13;46.77;100131.22;6312749;20;2733595;-52
2023/02/27 10:09:24;;;;;;;;;14.50;7.00;;;;;4.95;45.11;100127.34;6312411;20;2773203;-50
2023/02/27 10:12:28;;;;;;;;;8.33;7.00;;;;;5.13;44.51;100117.91;6299062;20;1811983;-49
2023/02/27 10:15:04;;;;;;;;;2.00;2.00;;;;;4.82;45.60;100132.22;6331237;20;1823381;-48
2023/02/27 10:17:48;;;;;;;;;8.83;7.00;;;;;5.27;44.77;100118.34;6358556;20;1799300;-51
2023/02/27 10:20:35;;;;;;;;;12.50;8.00;;;;;5.70;44.47;100130.22;6279039;20;2769188;-51
2023/02/27 10:23:18;;;;;;;;;17.60;12.60;;;;;6.31;42.74;100125.38;6306201;20;2818171;-54
2023/02/27 10:25:50;;;;;;;;;5.00;5.00;;;;;6.08;42.86;100122.69;6313640;20;2745082;-53
2023/02/27 10:28:22;;;;;;;;;10.00;7.00;;;;;5.89;42.54;100117.13;6312089;20;2755544;-52
2023/02/27 10:30:57;;;;;;;;;13.00;12.00;;;;;6.08;43.54;100120.00;6308277;20;2781655;-49
2023/02/27 10:33:39;;;;;;;;;8.00;8.00;;;;;5.86;42.50;100115.44;6299686;20;1803483;-49
2023/02/27 10:36:10;;;;;;;;;7.00;7.00;;;;;5.91;42.89;100117.94;6313408;20;2736723;-51
2023/02/27 10:39:05;;;;;;;;;16.00;15.00;;;;;6.27;42.11;100123.78;6310284;20;2500284;-50
2023/02/27 10:41:35;;;;;;;;;15.00;9.50;;;;;5.13;42.18;100120.56;6278556;20;2775326;-53
2023/02/27 10:44:03;;;;;;;;;9.50;8.00;;;;;5.44;41.68;100123.97;6277250;20;2744071;-52
2023/02/27 10:46:37;;;;;;;;;16.33;13.33;;;;;6.19;41.87;100123.19;6308264;20;2798255;-52
2023/02/27 10:49:20;;;;;;;;;37.00;34.67;;;;;5.84;41.07;100122.59;6313855;20;3612777;-51
2023/02/27 10:52:10;;;;;;;;;8.00;8.00;;;;;6.43;41.61;100117.88;6335912;20;1812603;-53
2023/02/27 10:54:40;;;;;;;;;7.00;7.00;;;;;7.20;40.14;100124.59;6316292;20;2737240;-53
2023/02/27 10:57:34;;;;;;;;;11.50;9.50;;;;;7.48;40.16;100126.16;6313577;20;2775373;-51
2023/02/27 11:00:27;;;;;;;;;10.00;8.50;;;;;6.70;40.57;100123.94;6284128;20;2763928;-51
2023/02/27 11:02:55;;;;;;;;;8.50;7.00;;;;;7.12;40.10;100126.72;6283261;20;2737988;-52
2023/02/27 11:05:36;;;;;;;;;33.00;26.50;;;;;7.28;40.84;100124.28;6281137;20;2859907;-47
2023/02/27 11:08:28;;;;;;;;;9.75;8.00;;;;;7.18;39.56;100117.59;6305256;20;1810007;-54
2023/02/27 11:11:11;;;;;;;;;12.57;11.00;;;;;7.99;37.95;100115.94;6360856;20;1804418;-49
2023/02/27 11:13:44;;;;;;;;;22.33;18.67;;;;;6.46;39.86;100107.94;6317010;20;3569049;-50
2023/02/27 11:16:22;;;;;;;;;15.50;15.50;;;;;7.37;38.03;100128.38;6282599;20;2810727;-48
2023/02/27 11:18:53;;;;;;;;;12.00;10.50;;;;;7.21;37.28;100118.34;6281904;20;2790037;-52
2023/02/27 11:21:28;;;;;;;;;6.50;6.50;;;;;6.81;38.51;100119.06;6304720;20;1819254;-50
2023/02/27 11:24:19;;;;;;;;;12.00;11.00;;;;;8.06;36.74;100131.66;6307287;20;2786745;-49
2023/02/27 11:27:28;;;;;;;;;7.83;7.00;;;;;7.68;39.84;100128.81;6327416;20;1808753;-50
2023/02/27 11:30:09;;;;;;;;;7.75;6.75;;;;;6.84;39.27;100121.59;6303268;20;1811866;-51
2023/02/27 11:32:50;;;;;;;;;20.00;13.00;;;;;6.40;40.14;100129.53;6313108;20;2502483;-53
2023/02/27 11:35:34;;;;;;;;;15.33;14.00;;;;;6.56;41.11;100121.81;6281276;20;3546133;-48
2023/02/27 11:38:15;;;;;;;;;27.00;21.00;;;;;6.27;41.45;100121.09;6312976;20;2836782;-50
2023/02/27 11:41:10;;;;;;;;;5.75;5.75;;;;;6.16;41.30;100123.28;6301284;20;1811958;-48
2023/02/27 11:43:52;;;;;;;;;12.00;12.00;;;;;5.82;41.93;100116.47;6312112;20;2810896;-49
2023/02/27 11:46:24;;;;;;;;;21.00;16.67;;;;;5.69;42.47;100117.81;6314651;20;3546098;-49
2023/02/27 11:49:38;;;;;;;;;11.00;9.00;;;;;5.65;41.86;100116.19;6283940;20;2763831;-47
2023/02/27 11:52:28;;;;;;;;;16.50;15.00;;;;;5.87;43.05;100113.63;6285031;20;2813973;-49
2023/02/27 11:55:02;;;;;;;;;10.00;10.00;;;;;6.54;42.05;100115.66;6283685;20;2773296;-47
2023/02/27 11:57:38;;;;;;;;;10.50;9.50;;;;;6.12;41.46;100113.66;6279214;20;2781556;-48
2023/02/27 12:00:29;;;;;;;;;17.50;15.33;;;;;6.13;41.97;100123.38;6308668;20;2825279;-58
2023/02/27 12:04:01;;;;;;;;;13.60;10.80;;;;;6.40;42.28;100125.97;6338599;20;2796158;-55
2023/02/27 12:07:06;;;;;;;;;12.00;11.00;;;;;6.52;41.58;100118.38;6287493;20;2789978;-57
2023/02/27 12:10:20;;;;;;;;;12.00;11.50;;;;;6.41;41.65;100122.38;6281086;20;2796142;-58